Time;durP1;ratioP1;P1;durP2;ratioP2;P2;SDS_P1;SDS_P2;PMS_P1;PMS_P2;Temp;Humidity;BMP_temperature;BMP_pressure;BME280_temperature;BME280_humidity;BME280_pressure;Samples;Min_cycle;Max_cycle;Signal;HPM_P1;HPM_P2
2021/12/14 00:01:47;;;;;;;;;;;103.30;2227.20;;;;;;5071444;28;19904;-74
2021/12/14 00:04:12;;;;;;;;;;;128.00;2252.80;;;;;;5072308;28;19904;-77
2021/12/14 00:06:39;;;;;;;;;;;128.00;2252.80;;;;;;5072369;28;20266;-75
2021/12/14 00:09:06;;;;;;;;;;;128.00;2252.80;;;;;;5072607;28;19919;-74
2021/12/14 00:17:00;;;;;;;;;;;103.30;2227.20;;;;;;5049580;28;20358;-76
2021/12/14 00:19:27;;;;;;;;;;;103.30;2227.20;;;;;;5050028;28;20015;-76
2021/12/14 00:21:55;;;;;;;;;;;128.00;2252.80;;;;;;5049885;28;19955;-75
2021/12/14 00:24:23;;;;;;;;;;;103.00;2227.20;;;;;;5066311;28;19905;-77
2021/12/14 00:26:54;;;;;;;;;;;103.10;2227.20;;;;;;5049798;28;19912;-77
2021/12/14 00:29:26;;;;;;;;;;;103.10;2227.20;;;;;;5049669;28;19923;-75
2021/12/14 00:31:53;;;;;;;;;;;103.10;2227.20;;;;;;5049456;28;19916;-77
2021/12/14 00:34:33;;;;;;;;;;;103.00;2227.20;;;;;;5049901;28;19950;-74
2021/12/14 00:36:59;;;;;;;;;;;103.00;2227.20;;;;;;5049608;28;19912;-77
2021/12/14 00:39:25;;;;;;;;;;;103.20;2227.20;;;;;;5049961;28;19908;-74
2021/12/14 00:41:50;;;;;;;;;;;103.10;2227.20;;;;;;5049604;28;20401;-76
2021/12/14 00:44:16;;;;;;;;;;;103.20;2227.20;;;;;;5050012;28;19905;-74
2021/12/14 00:46:41;;;;;;;;;;;103.20;2227.20;;;;;;5053247;28;20377;-76
2021/12/14 00:49:09;;;;;;;;;;;103.30;2227.20;;;;;;5053798;28;20358;-74
2021/12/14 00:51:35;;;;;;;;;;;103.30;2227.20;;;;;;5069935;28;19912;-76
2021/12/14 00:54:03;;;;;;;;;;;103.30;2227.20;;;;;;5063542;28;19912;-76
2021/12/14 00:56:29;;;;;;;;;;;103.30;2227.20;;;;;;5074344;28;20328;-74
2021/12/14 00:58:55;;;;;;;;;;;103.30;2227.20;;;;;;5075270;28;19908;-75
2021/12/14 01:01:23;;;;;;;;;;;128.00;2252.80;;;;;;5063128;28;20387;-76
2021/12/14 01:03:52;;;;;;;;;;;103.30;2227.20;;;;;;5072979;28;19926;-74
2021/12/14 01:06:19;;;;;;;;;;;103.30;2227.20;;;;;;5075419;28;19950;-77
2021/12/14 01:08:45;;;;;;;;;;;103.20;2227.20;;;;;;5073955;28;19905;-75
2021/12/14 01:11:18;;;;;;;;;;;103.20;2227.20;;;;;;5073994;28;19905;-74
2021/12/14 01:13:52;;;;;;;;;;;103.20;2227.20;;;;;;5074058;28;20014;-74
2021/12/14 01:16:32;;;;;;;;;;;103.30;2227.20;;;;;;5075247;28;19950;-76
2021/12/14 01:19:12;;;;;;;;;;;103.30;2227.20;;;;;;5075103;28;19920;-74
2021/12/14 01:21:56;;;;;;;;;;;103.20;2227.20;;;;;;5072632;28;19904;-75
2021/12/14 01:27:05;;;;;;;;;;;103.10;2227.20;;;;;;5075088;28;19911;-74
2021/12/14 01:29:32;;;;;;;;;;;103.00;2227.20;;;;;;5075210;28;19904;-77
2021/12/14 01:32:00;;;;;;;;;;;103.00;2227.20;;;;;;5067051;28;19978;-75
2021/12/14 01:34:30;;;;;;;;;;;103.00;2227.20;;;;;;5068080;28;19908;-74
2021/12/14 01:36:58;;;;;;;;;;;103.20;2227.20;;;;;;5074517;28;20339;-77
2021/12/14 01:41:58;;;;;;;;;;;103.10;2227.20;;;;;;5074744;28;19904;-74
2021/12/14 01:44:26;;;;;;;;;;;103.10;2227.20;;;;;;5073319;28;20321;-77
2021/12/14 01:46:55;;;;;;;;;;;103.10;2227.20;;;;;;5074476;28;19912;-74
2021/12/14 01:49:22;;;;;;;;;;;103.20;2227.20;;;;;;5074704;28;20265;-74
2021/12/14 01:51:49;;;;;;;;;;;103.00;2227.20;;;;;;5073150;28;20354;-75
2021/12/14 01:54:16;;;;;;;;;;;103.10;2227.20;;;;;;5073407;28;19908;-74
2021/12/14 01:56:42;;;;;;;;;;;103.00;2227.20;;;;;;5073230;28;19966;-74
2021/12/14 01:59:09;;;;;;;;;;;103.00;2227.20;;;;;;5073147;28;20358;-77
2021/12/14 02:01:53;;;;;;;;;;;103.00;2227.20;;;;;;5066937;28;19959;-74
2021/12/14 02:04:19;;;;;;;;;;;102.90;2227.20;;;;;;5073039;28;19905;-74
2021/12/14 02:06:51;;;;;;;;;;;102.80;2227.20;;;;;;5072813;28;19995;-77
2021/12/14 02:09:17;;;;;;;;;;;102.90;2227.20;;;;;;5074429;28;19908;-77
2021/12/14 02:11:45;;;;;;;;;;;102.50;2227.20;;;;;;5065885;28;20416;-75
2021/12/14 02:14:11;;;;;;;;;;;102.50;2227.20;;;;;;5067755;28;19955;-75
2021/12/14 02:16:37;;;;;;;;;;;102.70;2227.20;;;;;;5072947;28;19936;-76
2021/12/14 02:19:05;;;;;;;;;;;102.70;2227.20;;;;;;5073798;28;20440;-74
2021/12/14 02:21:31;;;;;;;;;;;102.70;2227.20;;;;;;5071602;28;19911;-77
2021/12/14 02:23:58;;;;;;;;;;;102.80;2227.20;;;;;;5073620;28;19904;-74
2021/12/14 02:26:25;;;;;;;;;;;102.90;2227.20;;;;;;5074247;28;20027;-74
2021/12/14 02:28:51;;;;;;;;;;;102.70;2227.20;;;;;;5071327;28;19911;-74
2021/12/14 02:31:18;;;;;;;;;;;102.90;2227.20;;;;;;5072699;28;19943;-74
2021/12/14 02:33:46;;;;;;;;;;;102.80;2227.20;;;;;;5073575;28;19958;-74
2021/12/14 02:36:17;;;;;;;;;;;102.90;2227.20;;;;;;5071491;28;20095;-74
2021/12/14 02:38:44;;;;;;;;;;;102.80;2227.20;;;;;;5073421;28;19952;-74
2021/12/14 02:41:10;;;;;;;;;;;102.70;2227.20;;;;;;5068158;28;20001;-77
2021/12/14 02:43:47;;;;;;;;;;;102.60;2227.20;;;;;;5073719;28;19935;-77
2021/12/14 02:46:16;;;;;;;;;;;102.70;2227.20;;;;;;5068717;28;19931;-76
2021/12/14 02:48:44;;;;;;;;;;;102.70;2227.20;;;;;;5061070;28;19915;-74
2021/12/14 02:51:12;;;;;;;;;;;102.70;2227.20;;;;;;5073221;28;20750;-77
2021/12/14 02:53:38;;;;;;;;;;;102.50;2227.20;;;;;;5070204;28;19912;-74
2021/12/14 02:56:07;;;;;;;;;;;102.60;2227.20;;;;;;5066639;28;19915;-74
2021/12/14 02:58:33;;;;;;;;;;;102.70;2227.20;;;;;;5073154;28;19962;-77
2021/12/14 03:00:58;;;;;;;;;;;102.80;2227.20;;;;;;5071843;28;19987;-77
2021/12/14 03:03:25;;;;;;;;;;;102.60;2227.20;;;;;;5071868;28;19905;-76
2021/12/14 03:05:50;;;;;;;;;;;102.60;2227.20;;;;;;5072085;28;19905;-75
2021/12/14 03:08:18;;;;;;;;;;;102.70;2227.20;;;;;;5072408;28;19904;-75
2021/12/14 03:10:59;;;;;;;;;;;102.60;2227.20;;;;;;5072009;28;19904;-76
2021/12/14 03:13:28;;;;;;;;;;;102.60;2227.20;;;;;;5072990;28;19916;-76
2021/12/14 03:15:56;;;;;;;;;;;102.50;2227.20;;;;;;5071524;28;19908;-74
2021/12/14 03:18:24;;;;;;;;;;;102.50;2227.20;;;;;;5071305;28;19917;-75
2021/12/14 03:20:53;;;;;;;;;;;102.50;2227.20;;;;;;5071640;28;19943;-74
2021/12/14 03:23:26;;;;;;;;;;;102.40;2227.20;;;;;;5072977;28;19912;-77
2021/12/14 03:25:53;;;;;;;;;;;102.50;2227.20;;;;;;5072848;28;20323;-74
2021/12/14 03:28:20;;;;;;;;;;;102.50;2227.20;;;;;;5072768;28;19904;-77
2021/12/14 03:30:46;;;;;;;;;;;77.70;2227.20;;;;;;5072829;28;19905;-74
2021/12/14 03:33:17;;;;;;;;;;;77.70;2227.20;;;;;;5077228;28;19912;-74
2021/12/14 03:35:45;;;;;;;;;;;77.50;2227.20;;;;;;5072848;28;19935;-74
2021/12/14 03:38:18;;;;;;;;;;;77.30;2227.20;;;;;;5072624;28;19904;-76
2021/12/14 03:40:52;;;;;;;;;;;77.20;2227.20;;;;;;5072570;28;19958;-77
2021/12/14 03:43:17;;;;;;;;;;;77.20;2227.20;;;;;;5072703;28;19905;-77
2021/12/14 03:45:43;;;;;;;;;;;77.40;2227.20;;;;;;5072532;28;19908;-74
2021/12/14 03:48:09;;;;;;;;;;;77.40;2227.20;;;;;;5072435;28;20254;-77
2021/12/14 03:50:40;;;;;;;;;;;77.20;2227.20;;;;;;5071374;28;20246;-75
2021/12/14 03:53:06;;;;;;;;;;;77.20;2227.20;;;;;;5071126;28;19919;-74
2021/12/14 03:55:34;;;;;;;;;;;77.10;2227.20;;;;;;5071118;28;19991;-74
2021/12/14 03:58:00;;;;;;;;;;;77.20;2227.20;;;;;;5055973;28;19955;-77
2021/12/14 04:00:29;;;;;;;;;;;77.40;2227.20;;;;;;5055013;28;19948;-76
2021/12/14 04:02:56;;;;;;;;;;;77.50;2227.20;;;;;;5061282;28;19987;-75
2021/12/14 04:05:22;;;;;;;;;;;77.70;2227.20;;;;;;5071533;28;19919;-75
2021/12/14 04:07:48;;;;;;;;;;;77.70;2227.20;;;;;;5072385;28;19904;-78
2021/12/14 04:10:15;;;;;;;;;;;77.60;2227.20;;;;;;5071093;28;19962;-74
2021/12/14 04:12:41;;;;;;;;;;;77.70;2227.20;;;;;;5070719;28;19916;-75
2021/12/14 04:15:08;;;;;;;;;;;77.60;2227.20;;;;;;5069956;28;19911;-77
2021/12/14 04:17:34;;;;;;;;;;;77.60;2227.20;;;;;;5059255;28;20014;-75
2021/12/14 04:19:59;;;;;;;;;;;77.40;2227.20;;;;;;5072308;28;20508;-75
2021/12/14 04:22:27;;;;;;;;;;;77.20;2227.20;;;;;;5074999;28;19905;-75
2021/12/14 04:24:54;;;;;;;;;;;77.40;2227.20;;;;;;5074952;28;19911;-75
2021/12/14 04:27:22;;;;;;;;;;;77.60;2227.20;;;;;;5076342;28;19995;-73
2021/12/14 04:29:47;;;;;;;;;;;77.60;2227.20;;;;;;5076096;28;19956;-74
2021/12/14 04:32:14;;;;;;;;;;;77.60;2227.20;;;;;;5076255;28;19971;-75
2021/12/14 04:34:39;;;;;;;;;;;77.40;2227.20;;;;;;5074694;28;19912;-76
2021/12/14 04:37:05;;;;;;;;;;;77.10;2227.20;;;;;;5076184;28;19905;-74
2021/12/14 04:39:44;;;;;;;;;;;77.20;2227.20;;;;;;5074398;28;20354;-76
2021/12/14 04:53:32;;;;;;;;;;;77.20;2227.20;;;;;;5074165;28;19920;-74
2021/12/14 04:55:58;;;;;;;;;;;77.00;2227.20;;;;;;5074559;28;19930;-76
2021/12/14 04:58:34;;;;;;;;;;;77.10;2227.20;;;;;;5075510;28;20438;-74
2021/12/14 05:01:01;;;;;;;;;;;77.20;2227.20;;;;;;5072150;28;19915;-77
2021/12/14 05:03:29;;;;;;;;;;;77.20;2227.20;;;;;;5060626;28;19911;-74
2021/12/14 05:06:09;;;;;;;;;;;77.30;2227.20;;;;;;5074314;28;19905;-74
2021/12/14 05:11:09;;;;;;;;;;;77.40;2227.20;;;;;;5075172;28;19911;-75
2021/12/14 05:13:37;;;;;;;;;;;77.20;2227.20;;;;;;5074914;28;19919;-74
2021/12/14 05:16:04;;;;;;;;;;;77.40;2227.20;;;;;;5074715;28;19908;-76
2021/12/14 05:18:30;;;;;;;;;;;77.30;2227.20;;;;;;5073799;28;19948;-77
2021/12/14 05:20:57;;;;;;;;;;;77.30;2227.20;;;;;;5074161;28;20479;-74
2021/12/14 05:23:25;;;;;;;;;;;77.20;2227.20;;;;;;5074090;28;19950;-77
2021/12/14 05:25:50;;;;;;;;;;;77.20;2227.20;;;;;;5074172;28;20006;-75
2021/12/14 05:28:19;;;;;;;;;;;77.10;2227.20;;;;;;5063639;28;19999;-74
2021/12/14 05:30:46;;;;;;;;;;;77.10;2227.20;;;;;;5074571;28;19909;-75
2021/12/14 05:33:17;;;;;;;;;;;77.10;2227.20;;;;;;5073633;28;19912;-76
2021/12/14 05:35:45;;;;;;;;;;;77.10;2227.20;;;;;;5073248;28;19966;-74
2021/12/14 05:38:12;;;;;;;;;;;76.90;2227.20;;;;;;5073929;28;19908;-75
2021/12/14 05:43:12;;;;;;;;;;;77.00;2227.20;;;;;;5075124;28;20003;-74
2021/12/14 05:45:40;;;;;;;;;;;77.00;2227.20;;;;;;5073425;28;19991;-74
2021/12/14 05:48:07;;;;;;;;;;;77.10;2227.20;;;;;;5073678;28;19915;-76
2021/12/14 05:50:44;;;;;;;;;;;77.00;2227.20;;;;;;5073793;28;20003;-75
2021/12/14 05:53:16;;;;;;;;;;;77.00;2227.20;;;;;;5070800;28;20382;-78
2021/12/14 05:55:41;;;;;;;;;;;77.10;2227.20;;;;;;5062481;28;19905;-75
2021/12/14 05:58:18;;;;;;;;;;;77.10;2227.20;;;;;;5059350;28;20003;-78
2021/12/14 06:00:46;;;;;;;;;;;76.90;2227.20;;;;;;5068571;28;19908;-75
2021/12/14 06:03:19;;;;;;;;;;;52.10;2227.20;;;;;;5073229;28;19904;-78
2021/12/14 06:05:45;;;;;;;;;;;52.00;2227.20;;;;;;5071366;28;19905;-75
2021/12/14 06:08:17;;;;;;;;;;;52.10;2227.20;;;;;;5073265;28;19905;-74
2021/12/14 06:10:43;;;;;;;;;;;76.80;2227.20;;;;;;5072908;28;19936;-78
2021/12/14 06:13:08;;;;;;;;;;;52.10;2227.20;;;;;;5073067;28;19966;-78
2021/12/14 06:15:36;;;;;;;;;;;77.00;2227.20;;;;;;5074042;28;20346;-76
2021/12/14 06:18:02;;;;;;;;;;;77.10;2227.20;;;;;;5081449;28;20013;-76
2021/12/14 06:20:28;;;;;;;;;;;77.10;2227.20;;;;;;5074026;28;19939;-75
2021/12/14 06:22:54;;;;;;;;;;;77.10;2227.20;;;;;;5074403;28;20333;-73
2021/12/14 06:25:22;;;;;;;;;;;77.20;2227.20;;;;;;5073808;28;19904;-74
2021/12/14 06:27:48;;;;;;;;;;;77.10;2227.20;;;;;;5072661;28;19934;-75
2021/12/14 06:30:16;;;;;;;;;;;77.20;2227.20;;;;;;5074073;28;19916;-75
2021/12/14 06:32:44;;;;;;;;;;;77.20;2227.20;;;;;;5078056;28;19912;-77
2021/12/14 06:35:15;;;;;;;;;;;77.30;2227.20;;;;;;5074121;28;19961;-78
2021/12/14 06:40:32;;;;;;;;;;;77.20;2227.20;;;;;;5056729;28;19905;-75
2021/12/14 06:42:59;;;;;;;;;;;77.20;2227.20;;;;;;5066193;28;19911;-77
2021/12/14 06:45:27;;;;;;;;;;;77.00;2227.20;;;;;;5072514;28;19904;-75
2021/12/14 06:47:56;;;;;;;;;;;77.00;2227.20;;;;;;5072733;28;19922;-74
2021/12/14 06:50:24;;;;;;;;;;;77.00;2227.20;;;;;;5070961;28;19908;-77
2021/12/14 06:53:11;;;;;;;;;;;77.00;2227.20;;;;;;5072059;28;19962;-76
2021/12/14 06:55:37;;;;;;;;;;;77.20;2227.20;;;;;;5071333;28;19904;-74
2021/12/14 06:58:11;;;;;;;;;;;77.00;2227.20;;;;;;5070581;28;20373;-79
2021/12/14 07:00:38;;;;;;;;;;;77.20;2227.20;;;;;;5073538;28;19905;-79
2021/12/14 07:03:04;;;;;;;;;;;77.30;2227.20;;;;;;5075484;28;19915;-75
2021/12/14 07:05:30;;;;;;;;;;;77.00;2227.20;;;;;;5072158;28;19991;-77
2021/12/14 07:07:57;;;;;;;;;;;77.20;2227.20;;;;;;5073019;28;20017;-73
2021/12/14 07:10:22;;;;;;;;;;;77.10;2227.20;;;;;;5072748;28;19904;-74
2021/12/14 07:12:48;;;;;;;;;;;77.20;2227.20;;;;;;5071819;28;20003;-75
2021/12/14 07:15:17;;;;;;;;;;;77.30;2227.20;;;;;;5072648;28;19953;-75
2021/12/14 07:17:46;;;;;;;;;;;77.30;2227.20;;;;;;5077137;28;20419;-75
2021/12/14 07:20:11;;;;;;;;;;;77.20;2227.20;;;;;;5072521;28;19908;-74
2021/12/14 07:22:45;;;;;;;;;;;77.10;2227.20;;;;;;5072887;28;19904;-75
2021/12/14 07:25:13;;;;;;;;;;;77.30;2227.20;;;;;;5070578;28;19905;-75
2021/12/14 07:27:39;;;;;;;;;;;77.20;2227.20;;;;;;5072418;28;20362;-76
2021/12/14 07:30:23;;;;;;;;;;;77.10;2227.20;;;;;;5071760;28;20406;-75
2021/12/14 07:32:49;;;;;;;;;;;77.20;2227.20;;;;;;5069264;28;20262;-74
2021/12/14 07:35:17;;;;;;;;;;;77.10;2227.20;;;;;;5073028;28;19911;-75
2021/12/14 07:37:43;;;;;;;;;;;77.10;2227.20;;;;;;5072836;28;19958;-74
2021/12/14 07:40:09;;;;;;;;;;;77.20;2227.20;;;;;;5071738;28;19904;-76
2021/12/14 07:42:35;;;;;;;;;;;77.40;2227.20;;;;;;5071746;28;19912;-74
2021/12/14 07:45:01;;;;;;;;;;;77.10;2227.20;;;;;;5072746;28;19904;-74
2021/12/14 07:47:26;;;;;;;;;;;77.20;2227.20;;;;;;5073018;28;20353;-76
2021/12/14 07:49:56;;;;;;;;;;;77.20;2227.20;;;;;;5074068;28;19952;-76
2021/12/14 07:52:28;;;;;;;;;;;77.20;2227.20;;;;;;5079717;28;20359;-74
2021/12/14 07:55:02;;;;;;;;;;;77.30;2227.20;;;;;;5078246;28;19909;-74
2021/12/14 07:57:29;;;;;;;;;;;77.20;2227.20;;;;;;5072629;28;20231;-76
2021/12/14 08:00:05;;;;;;;;;;;77.10;2227.20;;;;;;5084744;28;19908;-73
2021/12/14 08:02:38;;;;;;;;;;;77.10;2227.20;;;;;;5092535;28;19904;-74
2021/12/14 08:05:12;;;;;;;;;;;77.10;2227.20;;;;;;5086653;28;19958;-73
2021/12/14 08:07:43;;;;;;;;;;;77.30;2227.20;;;;;;5081115;28;19904;-74
2021/12/14 08:10:23;;;;;;;;;;;77.40;2227.20;;;;;;5080624;28;20349;-74
2021/12/14 08:12:53;;;;;;;;;;;77.40;2227.20;;;;;;5080954;28;19985;-74
2021/12/14 08:15:30;;;;;;;;;;;77.30;2227.20;;;;;;5078809;28;20350;-73
2021/12/14 08:18:02;;;;;;;;;;;77.30;2227.20;;;;;;5096134;28;20316;-74
2021/12/14 08:20:28;;;;;;;;;;;77.40;2227.20;;;;;;5081153;28;19908;-75
2021/12/14 08:22:56;;;;;;;;;;;77.40;2227.20;;;;;;5083455;28;19977;-75
2021/12/14 08:25:25;;;;;;;;;;;77.50;2227.20;;;;;;5083952;28;19958;-76
2021/12/14 08:28:00;;;;;;;;;;;77.30;2227.20;;;;;;5078799;28;19908;-75
2021/12/14 08:30:26;;;;;;;;;;;77.40;2227.20;;;;;;5083672;28;19987;-74
2021/12/14 08:32:52;;;;;;;;;;;77.50;2227.20;;;;;;5093326;28;20323;-76
2021/12/14 08:35:17;;;;;;;;;;;77.40;2227.20;;;;;;5092503;28;19961;-75
2021/12/14 08:37:46;;;;;;;;;;;77.40;2227.20;;;;;;5092699;28;19959;-75
2021/12/14 08:40:22;;;;;;;;;;;77.40;2227.20;;;;;;5092226;28;20406;-75
2021/12/14 08:43:01;;;;;;;;;;;77.40;2227.20;;;;;;5091351;28;19904;-75
2021/12/14 08:45:28;;;;;;;;;;;77.20;2227.20;;;;;;5082245;28;19954;-76
2021/12/14 08:47:53;;;;;;;;;;;77.40;2227.20;;;;;;5093480;28;19935;-72
2021/12/14 08:50:19;;;;;;;;;;;77.60;2227.20;;;;;;5086508;28;20352;-75
2021/12/14 08:52:45;;;;;;;;;;;77.60;2227.20;;;;;;5092145;28;20307;-73
2021/12/14 08:55:14;;;;;;;;;;;77.50;2227.20;;;;;;5090303;28;19923;-73
2021/12/14 08:57:41;;;;;;;;;;;77.20;2227.20;;;;;;5089188;28;19916;-74
2021/12/14 09:00:16;;;;;;;;;;;77.40;2227.20;;;;;;5078466;28;19905;-75
2021/12/14 09:02:42;;;;;;;;;;;77.30;2227.20;;;;;;5084904;28;20269;-74
2021/12/14 09:05:07;;;;;;;;;;;77.40;2227.20;;;;;;5092253;28;20364;-73
2021/12/14 09:07:33;;;;;;;;;;;77.60;2227.20;;;;;;5094172;28;19908;-73
2021/12/14 09:09:59;;;;;;;;;;;77.70;2227.20;;;;;;5096000;28;19910;-75
2021/12/14 09:12:27;;;;;;;;;;;77.50;2227.20;;;;;;5093881;28;19998;-74
2021/12/14 09:14:54;;;;;;;;;;;77.70;2227.20;;;;;;5095861;28;19904;-73
2021/12/14 09:17:22;;;;;;;;;;;77.60;2227.20;;;;;;5086634;28;20378;-74
2021/12/14 09:19:50;;;;;;;;;;;77.70;2227.20;;;;;;5075261;28;19909;-74
2021/12/14 09:22:17;;;;;;;;;;;102.50;2227.20;;;;;;5075416;28;20331;-74
2021/12/14 09:24:44;;;;;;;;;;;77.50;2227.20;;;;;;5075275;28;19911;-74
2021/12/14 09:27:11;;;;;;;;;;;77.50;2227.20;;;;;;5075367;28;19950;-74
2021/12/14 09:29:38;;;;;;;;;;;77.70;2227.20;;;;;;5073784;28;20350;-74
2021/12/14 09:32:05;;;;;;;;;;;102.50;2227.20;;;;;;5075242;28;19904;-74
2021/12/14 09:34:33;;;;;;;;;;;102.70;2227.20;;;;;;5075463;28;20259;-74
2021/12/14 09:36:59;;;;;;;;;;;102.70;2227.20;;;;;;5073877;28;19904;-76
2021/12/14 09:39:30;;;;;;;;;;;102.80;2227.20;;;;;;5075159;28;19904;-74
2021/12/14 09:41:56;;;;;;;;;;;102.60;2227.20;;;;;;5073577;28;19929;-76
2021/12/14 09:44:24;;;;;;;;;;;102.80;2227.20;;;;;;5075125;28;19911;-74
2021/12/14 09:46:50;;;;;;;;;;;102.90;2227.20;;;;;;5073464;28;19920;-76
2021/12/14 09:49:16;;;;;;;;;;;102.60;2227.20;;;;;;5073854;28;19963;-74
2021/12/14 09:51:51;;;;;;;;;;;77.60;2227.20;;;;;;5074761;28;19904;-75
2021/12/14 09:54:18;;;;;;;;;;;77.70;2227.20;;;;;;5074726;28;19970;-73
2021/12/14 09:56:49;;;;;;;;;;;102.60;2227.20;;;;;;5074881;28;19957;-74
2021/12/14 09:59:14;;;;;;;;;;;102.80;2227.20;;;;;;5078485;28;19915;-74
2021/12/14 10:01:40;;;;;;;;;;;102.50;2227.20;;;;;;5082838;28;19908;-75
2021/12/14 10:04:08;;;;;;;;;;;102.50;2227.20;;;;;;5083857;28;19919;-76
2021/12/14 10:06:34;;;;;;;;;;;102.50;2227.20;;;;;;5082224;28;19908;-74
2021/12/14 10:09:04;;;;;;;;;;;102.50;2227.20;;;;;;5079716;28;19904;-74
2021/12/14 10:11:48;;;;;;;;;;;102.40;2227.20;;;;;;5077725;28;19947;-76
2021/12/14 10:14:15;;;;;;;;;;;102.40;2227.20;;;;;;5076239;28;19921;-74
2021/12/14 10:16:42;;;;;;;;;;;102.70;2227.20;;;;;;5072917;28;19966;-74
2021/12/14 10:19:12;;;;;;;;;;;102.70;2227.20;;;;;;5074191;28;20389;-75
2021/12/14 10:21:58;;;;;;;;;;;102.90;2227.20;;;;;;5074126;28;19908;-75
2021/12/14 10:24:24;;;;;;;;;;;102.90;2227.20;;;;;;5072787;28;19962;-74
2021/12/14 10:26:55;;;;;;;;;;;102.90;2227.20;;;;;;5074123;28;19944;-75
2021/12/14 10:29:21;;;;;;;;;;;103.20;2227.20;;;;;;5072675;28;19934;-74
2021/12/14 10:31:49;;;;;;;;;;;103.30;2227.20;;;;;;5074145;28;19904;-74
2021/12/14 10:34:18;;;;;;;;;;;103.30;2227.20;;;;;;5074127;28;19956;-74
2021/12/14 10:36:47;;;;;;;;;;;103.30;2227.20;;;;;;5073892;28;19908;-74
2021/12/14 10:44:28;;;;;;;;;;;128.00;2252.80;;;;;;5073883;28;19943;-74
2021/12/14 10:46:54;;;;;;;;;;;128.20;2252.80;;;;;;5073822;28;19912;-74
2021/12/14 10:49:21;;;;;;;;;;;128.20;2252.80;;;;;;5080470;28;19912;-75
2021/12/14 10:51:52;;;;;;;;;;;128.20;2252.80;;;;;;5091871;28;19904;-74
2021/12/14 10:54:18;;;;;;;;;;;128.20;2252.80;;;;;;5093709;28;19912;-74
2021/12/14 10:56:47;;;;;;;;;;;128.30;2252.80;;;;;;5094182;28;19915;-78
2021/12/14 10:59:14;;;;;;;;;;;128.30;2252.80;;;;;;5093773;28;19950;-74
2021/12/14 11:01:42;;;;;;;;;;;128.30;2252.80;;;;;;5093876;28;20376;-75
2021/12/14 11:04:10;;;;;;;;;;;128.20;2252.80;;;;;;5092499;28;20280;-74
2021/12/14 11:06:38;;;;;;;;;;;128.30;2252.80;;;;;;5093529;28;19915;-74
2021/12/14 11:11:35;;;;;;;;;;;128.40;2252.80;;;;;;5093512;28;19911;-74
2021/12/14 11:14:04;;;;;;;;;;;128.40;2252.80;;;;;;5092468;28;19911;-74
2021/12/14 11:18:09;;;;;;;;;;;128.40;2252.80;;;;;;5093426;28;19908;-75
2021/12/14 11:19:39;;;;;;;;;;;128.30;2252.80;;;;;;5093143;28;19927;-74
2021/12/14 11:22:06;;;;;;;;;;;128.30;2252.80;;;;;;5093654;28;20022;-74
2021/12/14 11:24:33;;;;;;;;;;;128.40;2252.80;;;;;;5093521;28;19904;-74
2021/12/14 11:27:04;;;;;;;;;;;128.40;2252.80;;;;;;5093162;28;19926;-76
2021/12/14 11:29:30;;;;;;;;;;;128.50;2252.80;;;;;;5092608;28;20006;-74
2021/12/14 11:31:56;;;;;;;;;;;128.70;2252.80;;;;;;5081454;28;19999;-75
2021/12/14 11:34:30;;;;;;;;;;;128.70;2252.80;;;;;;5083291;28;19934;-75
2021/12/14 11:37:03;;;;;;;;;;;128.80;2252.80;;;;;;5083353;28;20364;-75
2021/12/14 11:39:32;;;;;;;;;;;128.80;2252.80;;;;;;5072962;28;19947;-76
2021/12/14 11:42:08;;;;;;;;;;;128.80;2252.80;;;;;;5070481;28;19904;-74
2021/12/14 11:44:36;;;;;;;;;;;128.50;2252.80;;;;;;5071408;28;19908;-73
2021/12/14 11:47:02;;;;;;;;;;;128.50;2252.80;;;;;;5071407;28;20362;-74
2021/12/14 11:49:49;;;;;;;;;;;128.70;2252.80;;;;;;5071329;28;19909;-75
2021/12/14 11:52:31;;;;;;;;;;;128.70;2252.80;;;;;;5071186;28;19935;-75
2021/12/14 11:54:57;;;;;;;;;;;128.30;2252.80;;;;;;5071397;28;20376;-75
2021/12/14 11:57:28;;;;;;;;;;;128.50;2252.80;;;;;;5072431;28;19905;-74
2021/12/14 12:00:08;;;;;;;;;;;128.70;2252.80;;;;;;5077324;28;19966;-74
2021/12/14 12:02:34;;;;;;;;;;;128.80;2252.80;;;;;;5079451;28;19912;-74
2021/12/14 12:05:12;;;;;;;;;;;128.80;2252.80;;;;;;5091434;28;19915;-75
2021/12/14 12:10:21;;;;;;;;;;;153.60;2252.80;;;;;;5069456;28;20373;-75
2021/12/14 12:12:47;;;;;;;;;;;153.70;2252.80;;;;;;5070869;28;19913;-75
2021/12/14 12:15:18;;;;;;;;;;;153.80;2252.80;;;;;;5071911;28;19904;-74
2021/12/14 12:17:47;;;;;;;;;;;153.80;2252.80;;;;;;5070806;28;19926;-75
2021/12/14 12:20:15;;;;;;;;;;;153.80;2252.80;;;;;;5070990;28;19943;-75
2021/12/14 12:22:52;;;;;;;;;;;153.90;2252.80;;;;;;5087885;28;19909;-74
2021/12/14 12:25:18;;;;;;;;;;;153.60;2252.80;;;;;;5071968;28;19950;-75
2021/12/14 12:27:46;;;;;;;;;;;153.80;2252.80;;;;;;5072202;28;19908;-75
2021/12/14 12:30:20;;;;;;;;;;;153.70;2252.80;;;;;;5074978;28;19955;-74
2021/12/14 12:32:46;;;;;;;;;;;153.80;2252.80;;;;;;5083353;28;20294;-75
2021/12/14 12:35:21;;;;;;;;;;;153.90;2252.80;;;;;;5072234;28;19995;-75
2021/12/14 12:37:46;;;;;;;;;;;153.90;2252.80;;;;;;5070978;28;20002;-76
2021/12/14 12:40:16;;;;;;;;;;;153.90;2252.80;;;;;;5072087;28;19951;-75
2021/12/14 12:42:42;;;;;;;;;;;153.90;2252.80;;;;;;5075875;28;19904;-75
2021/12/14 12:45:31;;;;;;;;;;;153.90;2252.80;;;;;;5074891;28;20267;-74
2021/12/14 12:47:56;;;;;;;;;;;153.80;2252.80;;;;;;5074333;28;19909;-74
2021/12/14 12:50:25;;;;;;;;;;;153.80;2252.80;;;;;;5075047;28;19940;-75
2021/12/14 12:52:51;;;;;;;;;;;153.70;2252.80;;;;;;5074899;28;20337;-75
2021/12/14 12:55:20;;;;;;;;;;;153.80;2252.80;;;;;;5073310;28;19947;-75
2021/12/14 12:57:55;;;;;;;;;;;153.80;2252.80;;;;;;5074576;28;20348;-74
2021/12/14 13:00:30;;;;;;;;;;;153.70;2252.80;;;;;;5075803;28;19943;-74
2021/12/14 13:02:58;;;;;;;;;;;153.60;2252.80;;;;;;5074541;28;19904;-74
2021/12/14 13:05:29;;;;;;;;;;;153.70;2252.80;;;;;;5074194;28;20343;-74
2021/12/14 13:08:18;;;;;;;;;;;128.90;2252.80;;;;;;5075539;28;19904;-74
2021/12/14 13:10:53;;;;;;;;;;;153.60;2252.80;;;;;;5066220;28;19908;-74
2021/12/14 13:13:19;;;;;;;;;;;153.70;2252.80;;;;;;5075382;28;19923;-74
2021/12/14 13:15:45;;;;;;;;;;;153.80;2252.80;;;;;;5075407;28;19904;-74
2021/12/14 13:18:36;;;;;;;;;;;153.70;2252.80;;;;;;5075371;28;19916;-73
2021/12/14 13:21:08;;;;;;;;;;;153.70;2252.80;;;;;;5070911;28;20510;-74
2021/12/14 13:23:46;;;;;;;;;;;153.70;2252.80;;;;;;5074304;28;19908;-74
2021/12/14 13:26:19;;;;;;;;;;;153.60;2252.80;;;;;;5075448;28;20083;-74
2021/12/14 13:28:45;;;;;;;;;;;153.60;2252.80;;;;;;5073753;28;19912;-74
2021/12/14 13:31:22;;;;;;;;;;;128.90;2252.80;;;;;;5074093;28;20346;-74
2021/12/14 13:33:48;;;;;;;;;;;128.90;2252.80;;;;;;5072648;28;19912;-74
2021/12/14 13:36:13;;;;;;;;;;;153.60;2252.80;;;;;;5073409;28;19934;-74
2021/12/14 13:38:39;;;;;;;;;;;153.60;2252.80;;;;;;5074049;28;19912;-75
2021/12/14 13:41:05;;;;;;;;;;;153.70;2252.80;;;;;;5074406;28;19994;-74
2021/12/14 13:43:35;;;;;;;;;;;153.60;2252.80;;;;;;5074343;28;20311;-73
2021/12/14 13:46:02;;;;;;;;;;;128.90;2252.80;;;;;;5070969;28;19935;-76
2021/12/14 13:48:33;;;;;;;;;;;128.90;2252.80;;;;;;5072465;28;20357;-75
2021/12/14 13:51:01;;;;;;;;;;;128.90;2252.80;;;;;;5072370;28;19948;-74
2021/12/14 13:53:26;;;;;;;;;;;128.90;2252.80;;;;;;5073285;28;19962;-75
2021/12/14 13:55:53;;;;;;;;;;;128.90;2252.80;;;;;;5072702;28;19908;-74
2021/12/14 13:58:25;;;;;;;;;;;153.60;2252.80;;;;;;5061521;28;19999;-75
2021/12/14 14:00:51;;;;;;;;;;;128.70;2252.80;;;;;;5071200;28;20329;-75
2021/12/14 14:03:18;;;;;;;;;;;128.60;2252.80;;;;;;5070179;28;19905;-75
2021/12/14 14:05:44;;;;;;;;;;;128.70;2252.80;;;;;;5058721;28;19908;-75
2021/12/14 14:08:22;;;;;;;;;;;128.70;2252.80;;;;;;5072202;28;20273;-74
2021/12/14 14:10:49;;;;;;;;;;;128.80;2252.80;;;;;;5071576;28;19905;-76
2021/12/14 14:13:34;;;;;;;;;;;128.70;2252.80;;;;;;5073124;28;19923;-75
2021/12/14 14:16:00;;;;;;;;;;;128.50;2252.80;;;;;;5071922;28;19904;-76
2021/12/14 14:18:35;;;;;;;;;;;128.60;2252.80;;;;;;5071564;28;19921;-77
2021/12/14 14:21:02;;;;;;;;;;;128.60;2252.80;;;;;;5071879;28;20011;-77
2021/12/14 14:23:38;;;;;;;;;;;128.50;2252.80;;;;;;5073044;28;20377;-77
2021/12/14 14:26:23;;;;;;;;;;;128.60;2252.80;;;;;;5073239;28;19946;-77
2021/12/14 14:29:01;;;;;;;;;;;128.50;2252.80;;;;;;5064346;28;19911;-74
2021/12/14 14:31:30;;;;;;;;;;;128.50;2252.80;;;;;;5071838;28;19904;-76
2021/12/14 14:33:56;;;;;;;;;;;128.50;2252.80;;;;;;5073611;28;20400;-75
2021/12/14 14:36:32;;;;;;;;;;;128.40;2252.80;;;;;;5071080;28;19904;-74
2021/12/14 14:39:06;;;;;;;;;;;128.40;2252.80;;;;;;5065848;28;19904;-76